Colton, CA (92324)

2:33 PM PDT on August 29, 2016 (GMT -0700)
Barton Rd. and Waterman Ave. (L&L Environmental, Inc.) | | Change Station

Elev 1037 ft 34.05 °N, 117.28 °W | Updated 11 minutes ago

Haze
Haze
103.6 °F
Feels Like 103 °F
N
4.7
Wind Variable Wind from SW

Today
High -- | Low -- °F
--% Chance of Precip.
Yesterday
High -- | Low -- °F
Precip. -- in
Pressure 29.91 in
Visibility 6.0 miles
Clouds Few 6000 ft
Heat Index 103 °F
Dew Point 56 °F
Humidity 21%
Rainfall 0.00 in
Snow Depth Not available.
6:21 AM 7:18 PM
Waning Crescent, 7% visible
METAR KSBD 292050Z 28007KT 6SM HZ FEW060 39/07 A2991
Pressure 29.91 in
Visibility 6.0 miles
Clouds Few 6000 ft
Heat Index 103 °F
Dew Point 56 °F
Humidity 21%
Rainfall 0.00 in
Snow Depth Not available.
6:21 AM 7:18 PM
Waning Crescent, 7% visible
METAR KSBD 292050Z 28007KT 6SM HZ FEW060 39/07 A2991

10-Day Weather Forecast

Almanac

Astronomy

Aug. 29, 2016 Rise Set
Actual Time
Civil Twilight
Nautical Twilight
Astronomical Twilight
Moon
Length of Visible Light
Length of Day
Tomorrow will be .
, % of the Moon is Illuminated

Today's Extremes

State Highs State Lows

Community

WunderPhotos

Upload Photos

1,935,679 photos uploaded!

WunderBlog® & News

Nearby

Air Quality

  Air Quality AQ Index Pollutant
Not available.

Snow Depth

Station Depth Elevation

Earthquake Activity

City Distance Mag. Time & Date
Minimum magnitude displayed is 2.5.

Coastal Water Temperatures

Place Temperature

Stations

Nearby Weather Stations

Station Location Temp. Windchill Dew Point Humidity Wind Precip. Elev Updated Type
                   

Watches & Warnings

There are currently no watches in effect.